sensor_id;sensor_type;location;lat;lon;timestamp;P1;durP1;ratioP1;P2;durP2;ratioP2
31818;SDS011;18384;48.860;9.188;2022-10-16T00:01:24;4.28;;;1.60;;
31818;SDS011;18384;48.860;9.188;2022-10-16T00:03:56;3.90;;;1.95;;
31818;SDS011;18384;48.860;9.188;2022-10-16T00:06:24;3.85;;;1.83;;
31818;SDS011;18384;48.860;9.188;2022-10-16T00:08:52;8.18;;;1.87;;
31818;SDS011;18384;48.860;9.188;2022-10-16T00:11:22;5.00;;;1.77;;
31818;SDS011;18384;48.860;9.188;2022-10-16T00:13:51;10.57;;;1.87;;
31818;SDS011;18384;48.860;9.188;2022-10-16T00:16:22;6.00;;;1.80;;
31818;SDS011;18384;48.860;9.188;2022-10-16T00:18:48;10.00;;;2.00;;
31818;SDS011;18384;48.860;9.188;2022-10-16T00:21:19;10.20;;;1.98;;
31818;SDS011;18384;48.860;9.188;2022-10-16T00:23:52;15.48;;;2.15;;
31818;SDS011;18384;48.860;9.188;2022-10-16T00:26:21;5.68;;;2.10;;
31818;SDS011;18384;48.860;9.188;2022-10-16T00:28:48;8.75;;;2.80;;
31818;SDS011;18384;48.860;9.188;2022-10-16T00:31:16;16.05;;;2.55;;
31818;SDS011;18384;48.860;9.188;2022-10-16T00:33:44;11.57;;;2.70;;
31818;SDS011;18384;48.860;9.188;2022-10-16T00:36:12;7.10;;;2.22;;
31818;SDS011;18384;48.860;9.188;2022-10-16T00:38:42;8.13;;;2.33;;
31818;SDS011;18384;48.860;9.188;2022-10-16T00:41:11;13.77;;;2.22;;
31818;SDS011;18384;48.860;9.188;2022-10-16T00:43:44;10.00;;;2.22;;
31818;SDS011;18384;48.860;9.188;2022-10-16T00:47:46;9.90;;;1.60;;
31818;SDS011;18384;48.860;9.188;2022-10-16T00:50:32;6.62;;;1.98;;
31818;SDS011;18384;48.860;9.188;2022-10-16T00:53:00;3.42;;;1.73;;
31818;SDS011;18384;48.860;9.188;2022-10-16T00:55:28;10.23;;;1.98;;
31818;SDS011;18384;48.860;9.188;2022-10-16T00:57:55;6.32;;;1.70;;
31818;SDS011;18384;48.860;9.188;2022-10-16T01:00:24;5.43;;;1.60;;
31818;SDS011;18384;48.860;9.188;2022-10-16T01:03:01;5.85;;;1.50;;
31818;SDS011;18384;48.860;9.188;2022-10-16T01:05:45;24.63;;;2.08;;
31818;SDS011;18384;48.860;9.188;2022-10-16T01:09:11;6.82;;;1.92;;
31818;SDS011;18384;48.860;9.188;2022-10-16T01:21:22;6.35;;;1.70;;
31818;SDS011;18384;48.860;9.188;2022-10-16T01:33:01;4.22;;;2.58;;
31818;SDS011;18384;48.860;9.188;2022-10-16T01:35:41;5.47;;;1.60;;
31818;SDS011;18384;48.860;9.188;2022-10-16T01:38:34;4.47;;;1.30;;
31818;SDS011;18384;48.860;9.188;2022-10-16T01:41:13;3.55;;;1.45;;
31818;SDS011;18384;48.860;9.188;2022-10-16T01:43:49;6.05;;;1.40;;
31818;SDS011;18384;48.860;9.188;2022-10-16T01:46:53;4.18;;;1.40;;
31818;SDS011;18384;48.860;9.188;2022-10-16T01:49:21;2.83;;;1.12;;
31818;SDS011;18384;48.860;9.188;2022-10-16T01:51:54;4.32;;;1.60;;
31818;SDS011;18384;48.860;9.188;2022-10-16T01:54:25;4.30;;;1.25;;
31818;SDS011;18384;48.860;9.188;2022-10-16T01:56:55;11.07;;;1.80;;
31818;SDS011;18384;48.860;9.188;2022-10-16T01:59:23;3.92;;;2.00;;
31818;SDS011;18384;48.860;9.188;2022-10-16T02:01:52;9.50;;;1.80;;
31818;SDS011;18384;48.860;9.188;2022-10-16T02:04:28;4.18;;;1.85;;
31818;SDS011;18384;48.860;9.188;2022-10-16T02:06:58;8.98;;;1.50;;
31818;SDS011;18384;48.860;9.188;2022-10-16T02:09:25;3.35;;;1.58;;
31818;SDS011;18384;48.860;9.188;2022-10-16T02:11:52;8.73;;;1.67;;
31818;SDS011;18384;48.860;9.188;2022-10-16T02:14:20;4.70;;;1.52;;
31818;SDS011;18384;48.860;9.188;2022-10-16T02:16:49;3.10;;;1.33;;
31818;SDS011;18384;48.860;9.188;2022-10-16T02:21:47;4.80;;;1.50;;
31818;SDS011;18384;48.860;9.188;2022-10-16T02:24:39;6.22;;;1.30;;
31818;SDS011;18384;48.860;9.188;2022-10-16T02:27:26;3.45;;;1.45;;
31818;SDS011;18384;48.860;9.188;2022-10-16T02:30:19;3.58;;;1.60;;
31818;SDS011;18384;48.860;9.188;2022-10-16T02:33:04;9.37;;;1.50;;
31818;SDS011;18384;48.860;9.188;2022-10-16T02:35:35;6.07;;;1.70;;
31818;SDS011;18384;48.860;9.188;2022-10-16T02:38:02;4.97;;;1.55;;
31818;SDS011;18384;48.860;9.188;2022-10-16T02:40:29;6.75;;;1.50;;
31818;SDS011;18384;48.860;9.188;2022-10-16T02:42:56;4.45;;;1.65;;
31818;SDS011;18384;48.860;9.188;2022-10-16T02:45:22;12.23;;;1.40;;
31818;SDS011;18384;48.860;9.188;2022-10-16T02:47:49;4.57;;;1.30;;
31818;SDS011;18384;48.860;9.188;2022-10-16T02:50:15;7.40;;;1.37;;
31818;SDS011;18384;48.860;9.188;2022-10-16T02:55:08;4.25;;;1.37;;
31818;SDS011;18384;48.860;9.188;2022-10-16T02:57:34;4.82;;;1.50;;
31818;SDS011;18384;48.860;9.188;2022-10-16T03:00:03;6.03;;;1.80;;
31818;SDS011;18384;48.860;9.188;2022-10-16T03:02:30;6.43;;;2.05;;
31818;SDS011;18384;48.860;9.188;2022-10-16T03:04:56;3.12;;;1.70;;
31818;SDS011;18384;48.860;9.188;2022-10-16T03:07:22;7.32;;;1.55;;
31818;SDS011;18384;48.860;9.188;2022-10-16T03:09:48;8.75;;;1.45;;
31818;SDS011;18384;48.860;9.188;2022-10-16T03:12:15;11.55;;;1.52;;
31818;SDS011;18384;48.860;9.188;2022-10-16T03:14:41;14.65;;;1.75;;
31818;SDS011;18384;48.860;9.188;2022-10-16T03:17:07;3.42;;;1.50;;
31818;SDS011;18384;48.860;9.188;2022-10-16T03:19:33;5.75;;;1.80;;
31818;SDS011;18384;48.860;9.188;2022-10-16T03:22:01;6.45;;;1.65;;
31818;SDS011;18384;48.860;9.188;2022-10-16T03:26:53;4.43;;;1.40;;
31818;SDS011;18384;48.860;9.188;2022-10-16T03:29:19;3.65;;;1.55;;
31818;SDS011;18384;48.860;9.188;2022-10-16T03:31:45;7.47;;;1.37;;
31818;SDS011;18384;48.860;9.188;2022-10-16T03:34:13;2.72;;;1.50;;
31818;SDS011;18384;48.860;9.188;2022-10-16T03:36:39;5.22;;;1.27;;
31818;SDS011;18384;48.860;9.188;2022-10-16T03:39:05;6.20;;;1.20;;
31818;SDS011;18384;48.860;9.188;2022-10-16T03:41:31;7.30;;;1.75;;
31818;SDS011;18384;48.860;9.188;2022-10-16T03:43:57;3.67;;;1.50;;
31818;SDS011;18384;48.860;9.188;2022-10-16T03:46:24;3.83;;;1.30;;
31818;SDS011;18384;48.860;9.188;2022-10-16T03:48:50;4.80;;;1.50;;
31818;SDS011;18384;48.860;9.188;2022-10-16T03:51:16;4.97;;;1.60;;
31818;SDS011;18384;48.860;9.188;2022-10-16T03:53:42;2.47;;;1.25;;
31818;SDS011;18384;48.860;9.188;2022-10-16T03:56:08;3.75;;;1.23;;
31818;SDS011;18384;48.860;9.188;2022-10-16T03:58:34;7.35;;;1.58;;
31818;SDS011;18384;48.860;9.188;2022-10-16T04:01:00;7.68;;;1.73;;
31818;SDS011;18384;48.860;9.188;2022-10-16T04:03:26;7.32;;;1.70;;
31818;SDS011;18384;48.860;9.188;2022-10-16T04:05:52;8.15;;;1.40;;
31818;SDS011;18384;48.860;9.188;2022-10-16T04:08:19;6.85;;;1.90;;
31818;SDS011;18384;48.860;9.188;2022-10-16T04:10:45;6.43;;;1.40;;
31818;SDS011;18384;48.860;9.188;2022-10-16T04:13:11;5.78;;;1.73;;
31818;SDS011;18384;48.860;9.188;2022-10-16T04:15:38;6.70;;;1.20;;
31818;SDS011;18384;48.860;9.188;2022-10-16T04:18:04;10.63;;;2.00;;
31818;SDS011;18384;48.860;9.188;2022-10-16T04:20:31;6.00;;;1.60;;
31818;SDS011;18384;48.860;9.188;2022-10-16T04:22:58;12.45;;;1.77;;
31818;SDS011;18384;48.860;9.188;2022-10-16T04:25:24;7.87;;;1.80;;
31818;SDS011;18384;48.860;9.188;2022-10-16T04:27:52;5.62;;;1.52;;
31818;SDS011;18384;48.860;9.188;2022-10-16T04:30:19;4.40;;;1.48;;
31818;SDS011;18384;48.860;9.188;2022-10-16T04:32:50;3.10;;;1.30;;
31818;SDS011;18384;48.860;9.188;2022-10-16T04:35:17;5.22;;;1.58;;
31818;SDS011;18384;48.860;9.188;2022-10-16T04:37:45;5.70;;;1.70;;
31818;SDS011;18384;48.860;9.188;2022-10-16T04:40:11;5.57;;;1.50;;
31818;SDS011;18384;48.860;9.188;2022-10-16T04:42:38;4.50;;;1.85;;
31818;SDS011;18384;48.860;9.188;2022-10-16T04:45:05;7.15;;;1.33;;
31818;SDS011;18384;48.860;9.188;2022-10-16T04:47:33;5.18;;;1.37;;
31818;SDS011;18384;48.860;9.188;2022-10-16T04:49:59;2.90;;;1.50;;
31818;SDS011;18384;48.860;9.188;2022-10-16T04:52:27;9.43;;;1.58;;
31818;SDS011;18384;48.860;9.188;2022-10-16T04:54:54;3.55;;;1.37;;
31818;SDS011;18384;48.860;9.188;2022-10-16T04:57:21;10.98;;;1.52;;
31818;SDS011;18384;48.860;9.188;2022-10-16T04:59:47;3.37;;;1.40;;
31818;SDS011;18384;48.860;9.188;2022-10-16T05:02:13;3.45;;;1.50;;
31818;SDS011;18384;48.860;9.188;2022-10-16T05:04:39;2.97;;;1.52;;
31818;SDS011;18384;48.860;9.188;2022-10-16T05:07:06;5.62;;;1.80;;
31818;SDS011;18384;48.860;9.188;2022-10-16T05:09:32;6.00;;;1.27;;
31818;SDS011;18384;48.860;9.188;2022-10-16T05:11:58;6.32;;;1.20;;
31818;SDS011;18384;48.860;9.188;2022-10-16T05:14:24;7.37;;;1.35;;
31818;SDS011;18384;48.860;9.188;2022-10-16T05:16:50;4.47;;;1.75;;
31818;SDS011;18384;48.860;9.188;2022-10-16T05:19:17;4.85;;;1.60;;
31818;SDS011;18384;48.860;9.188;2022-10-16T05:24:09;3.78;;;1.60;;
31818;SDS011;18384;48.860;9.188;2022-10-16T05:26:35;5.28;;;1.83;;
31818;SDS011;18384;48.860;9.188;2022-10-16T05:29:01;6.55;;;1.60;;
31818;SDS011;18384;48.860;9.188;2022-10-16T05:31:28;5.10;;;1.50;;
31818;SDS011;18384;48.860;9.188;2022-10-16T05:33:58;3.53;;;1.42;;
31818;SDS011;18384;48.860;9.188;2022-10-16T05:36:25;5.78;;;2.17;;
31818;SDS011;18384;48.860;9.188;2022-10-16T05:38:51;8.43;;;1.52;;
31818;SDS011;18384;48.860;9.188;2022-10-16T05:41:18;6.97;;;1.83;;
31818;SDS011;18384;48.860;9.188;2022-10-16T05:43:50;6.15;;;1.80;;
31818;SDS011;18384;48.860;9.188;2022-10-16T05:46:16;15.35;;;2.10;;
31818;SDS011;18384;48.860;9.188;2022-10-16T05:48:42;17.20;;;2.00;;
31818;SDS011;18384;48.860;9.188;2022-10-16T05:51:10;7.10;;;1.73;;
31818;SDS011;18384;48.860;9.188;2022-10-16T05:53:39;3.75;;;1.52;;
31818;SDS011;18384;48.860;9.188;2022-10-16T05:56:06;11.05;;;1.58;;
31818;SDS011;18384;48.860;9.188;2022-10-16T05:58:35;7.65;;;1.50;;
31818;SDS011;18384;48.860;9.188;2022-10-16T06:01:04;10.90;;;1.60;;
31818;SDS011;18384;48.860;9.188;2022-10-16T06:03:34;6.37;;;1.60;;
31818;SDS011;18384;48.860;9.188;2022-10-16T06:06:14;8.98;;;1.80;;
31818;SDS011;18384;48.860;9.188;2022-10-16T06:08:42;4.93;;;1.30;;
31818;SDS011;18384;48.860;9.188;2022-10-16T06:11:11;6.82;;;1.50;;
31818;SDS011;18384;48.860;9.188;2022-10-16T06:13:43;3.97;;;1.52;;
31818;SDS011;18384;48.860;9.188;2022-10-16T06:16:11;3.33;;;1.62;;
31818;SDS011;18384;48.860;9.188;2022-10-16T06:18:38;8.73;;;1.80;;
31818;SDS011;18384;48.860;9.188;2022-10-16T06:21:08;5.82;;;1.70;;
31818;SDS011;18384;48.860;9.188;2022-10-16T06:23:46;4.07;;;1.87;;
31818;SDS011;18384;48.860;9.188;2022-10-16T06:26:14;3.78;;;1.50;;
31818;SDS011;18384;48.860;9.188;2022-10-16T06:28:43;7.37;;;2.03;;
31818;SDS011;18384;48.860;9.188;2022-10-16T06:31:09;3.60;;;1.58;;
31818;SDS011;18384;48.860;9.188;2022-10-16T06:33:37;7.32;;;1.50;;
31818;SDS011;18384;48.860;9.188;2022-10-16T06:36:08;4.37;;;1.62;;
31818;SDS011;18384;48.860;9.188;2022-10-16T06:38:37;4.55;;;1.55;;
31818;SDS011;18384;48.860;9.188;2022-10-16T06:41:04;4.93;;;1.87;;
31818;SDS011;18384;48.860;9.188;2022-10-16T06:43:31;11.98;;;1.92;;
31818;SDS011;18384;48.860;9.188;2022-10-16T06:46:00;7.62;;;1.90;;
31818;SDS011;18384;48.860;9.188;2022-10-16T06:48:28;3.42;;;1.50;;
31818;SDS011;18384;48.860;9.188;2022-10-16T06:50:58;9.43;;;1.95;;
31818;SDS011;18384;48.860;9.188;2022-10-16T06:53:36;3.00;;;1.50;;
31818;SDS011;18384;48.860;9.188;2022-10-16T06:56:09;7.82;;;1.95;;
31818;SDS011;18384;48.860;9.188;2022-10-16T06:58:47;7.87;;;2.35;;
31818;SDS011;18384;48.860;9.188;2022-10-16T07:01:15;6.78;;;2.15;;
31818;SDS011;18384;48.860;9.188;2022-10-16T07:03:44;9.80;;;2.87;;
31818;SDS011;18384;48.860;9.188;2022-10-16T07:06:12;6.25;;;1.67;;
31818;SDS011;18384;48.860;9.188;2022-10-16T07:08:41;10.85;;;1.95;;
31818;SDS011;18384;48.860;9.188;2022-10-16T07:11:10;12.18;;;1.73;;
31818;SDS011;18384;48.860;9.188;2022-10-16T07:13:39;13.05;;;1.87;;
31818;SDS011;18384;48.860;9.188;2022-10-16T07:16:11;3.80;;;1.83;;
31818;SDS011;18384;48.860;9.188;2022-10-16T07:18:41;14.52;;;2.10;;
31818;SDS011;18384;48.860;9.188;2022-10-16T07:21:10;5.47;;;1.95;;
31818;SDS011;18384;48.860;9.188;2022-10-16T07:23:39;5.53;;;1.83;;
31818;SDS011;18384;48.860;9.188;2022-10-16T07:26:06;4.07;;;2.08;;
31818;SDS011;18384;48.860;9.188;2022-10-16T07:28:32;4.40;;;2.15;;
31818;SDS011;18384;48.860;9.188;2022-10-16T07:31:06;5.07;;;2.12;;
31818;SDS011;18384;48.860;9.188;2022-10-16T07:33:36;9.43;;;2.40;;
31818;SDS011;18384;48.860;9.188;2022-10-16T07:36:03;6.53;;;2.65;;
31818;SDS011;18384;48.860;9.188;2022-10-16T07:38:30;12.70;;;2.95;;
31818;SDS011;18384;48.860;9.188;2022-10-16T07:41:04;10.50;;;4.37;;
31818;SDS011;18384;48.860;9.188;2022-10-16T07:43:32;15.98;;;3.37;;
31818;SDS011;18384;48.860;9.188;2022-10-16T07:45:59;5.15;;;2.62;;
31818;SDS011;18384;48.860;9.188;2022-10-16T07:48:29;10.35;;;2.75;;
31818;SDS011;18384;48.860;9.188;2022-10-16T07:51:00;9.30;;;2.85;;
31818;SDS011;18384;48.860;9.188;2022-10-16T07:53:28;7.72;;;3.08;;
31818;SDS011;18384;48.860;9.188;2022-10-16T07:56:01;5.05;;;2.83;;
31818;SDS011;18384;48.860;9.188;2022-10-16T07:58:30;21.20;;;3.55;;
31818;SDS011;18384;48.860;9.188;2022-10-16T08:00:57;9.45;;;3.15;;
31818;SDS011;18384;48.860;9.188;2022-10-16T08:03:24;4.25;;;1.67;;
31818;SDS011;18384;48.860;9.188;2022-10-16T08:05:51;3.37;;;1.60;;
31818;SDS011;18384;48.860;9.188;2022-10-16T08:08:17;9.20;;;2.10;;
31818;SDS011;18384;48.860;9.188;2022-10-16T08:10:44;8.18;;;2.53;;
31818;SDS011;18384;48.860;9.188;2022-10-16T08:13:10;4.75;;;2.08;;
31818;SDS011;18384;48.860;9.188;2022-10-16T08:15:39;8.23;;;2.20;;
31818;SDS011;18384;48.860;9.188;2022-10-16T08:18:07;6.50;;;2.22;;
31818;SDS011;18384;48.860;9.188;2022-10-16T08:20:34;8.20;;;2.00;;
31818;SDS011;18384;48.860;9.188;2022-10-16T08:23:00;6.25;;;1.80;;
31818;SDS011;18384;48.860;9.188;2022-10-16T08:25:27;4.75;;;2.25;;
31818;SDS011;18384;48.860;9.188;2022-10-16T08:27:53;10.15;;;1.77;;
31818;SDS011;18384;48.860;9.188;2022-10-16T08:30:20;3.42;;;1.42;;
31818;SDS011;18384;48.860;9.188;2022-10-16T08:32:48;7.07;;;1.73;;
31818;SDS011;18384;48.860;9.188;2022-10-16T08:37:41;6.57;;;1.80;;
31818;SDS011;18384;48.860;9.188;2022-10-16T08:40:18;5.62;;;1.70;;
31818;SDS011;18384;48.860;9.188;2022-10-16T08:43:29;10.77;;;2.33;;
31818;SDS011;18384;48.860;9.188;2022-10-16T08:49:47;7.32;;;1.48;;
31818;SDS011;18384;48.860;9.188;2022-10-16T08:52:34;5.03;;;1.50;;
31818;SDS011;18384;48.860;9.188;2022-10-16T08:55:04;5.85;;;1.20;;
31818;SDS011;18384;48.860;9.188;2022-10-16T08:57:31;3.05;;;1.42;;
31818;SDS011;18384;48.860;9.188;2022-10-16T08:59:59;7.32;;;1.30;;
31818;SDS011;18384;48.860;9.188;2022-10-16T09:02:37;3.20;;;1.40;;
31818;SDS011;18384;48.860;9.188;2022-10-16T09:05:22;3.67;;;1.70;;
31818;SDS011;18384;48.860;9.188;2022-10-16T09:16:10;2.75;;;1.30;;
31818;SDS011;18384;48.860;9.188;2022-10-16T09:19:24;7.78;;;1.25;;
31818;SDS011;18384;48.860;9.188;2022-10-16T09:22:04;5.65;;;1.55;;
31818;SDS011;18384;48.860;9.188;2022-10-16T09:24:39;2.70;;;1.35;;
31818;SDS011;18384;48.860;9.188;2022-10-16T09:27:07;3.80;;;1.30;;
31818;SDS011;18384;48.860;9.188;2022-10-16T09:29:37;5.70;;;1.10;;
31818;SDS011;18384;48.860;9.188;2022-10-16T09:32:13;3.15;;;1.50;;
31818;SDS011;18384;48.860;9.188;2022-10-16T09:34:55;7.32;;;1.73;;
31818;SDS011;18384;48.860;9.188;2022-10-16T09:39:53;15.65;;;1.80;;
31818;SDS011;18384;48.860;9.188;2022-10-16T09:42:33;4.35;;;1.62;;
31818;SDS011;18384;48.860;9.188;2022-10-16T09:45:02;3.25;;;1.70;;
31818;SDS011;18384;48.860;9.188;2022-10-16T09:47:30;7.12;;;1.58;;
31818;SDS011;18384;48.860;9.188;2022-10-16T09:49:58;4.60;;;1.90;;
31818;SDS011;18384;48.860;9.188;2022-10-16T09:52:31;3.95;;;1.17;;
31818;SDS011;18384;48.860;9.188;2022-10-16T09:54:59;4.03;;;1.27;;
31818;SDS011;18384;48.860;9.188;2022-10-16T09:57:37;5.18;;;1.42;;
31818;SDS011;18384;48.860;9.188;2022-10-16T10:00:16;4.22;;;1.10;;
31818;SDS011;18384;48.860;9.188;2022-10-16T10:02:43;6.75;;;1.48;;
31818;SDS011;18384;48.860;9.188;2022-10-16T10:05:23;10.00;;;1.65;;
31818;SDS011;18384;48.860;9.188;2022-10-16T10:07:59;3.28;;;1.37;;
31818;SDS011;18384;48.860;9.188;2022-10-16T10:10:32;11.18;;;3.12;;
31818;SDS011;18384;48.860;9.188;2022-10-16T10:13:02;2.92;;;1.40;;
31818;SDS011;18384;48.860;9.188;2022-10-16T10:15:29;2.45;;;1.00;;
31818;SDS011;18384;48.860;9.188;2022-10-16T10:18:00;3.15;;;1.10;;
31818;SDS011;18384;48.860;9.188;2022-10-16T10:20:32;3.35;;;1.10;;
31818;SDS011;18384;48.860;9.188;2022-10-16T10:23:00;2.72;;;1.20;;
31818;SDS011;18384;48.860;9.188;2022-10-16T10:32:16;1.58;;;0.93;;
31818;SDS011;18384;48.860;9.188;2022-10-16T10:39:22;7.00;;;1.33;;
31818;SDS011;18384;48.860;9.188;2022-10-16T10:42:02;2.70;;;0.98;;
31818;SDS011;18384;48.860;9.188;2022-10-16T10:44:53;3.35;;;1.30;;
31818;SDS011;18384;48.860;9.188;2022-10-16T10:47:48;5.15;;;1.50;;
31818;SDS011;18384;48.860;9.188;2022-10-16T10:53:24;6.07;;;1.20;;
31818;SDS011;18384;48.860;9.188;2022-10-16T11:03:06;1.75;;;1.00;;
31818;SDS011;18384;48.860;9.188;2022-10-16T11:09:27;4.32;;;1.15;;
31818;SDS011;18384;48.860;9.188;2022-10-16T11:12:01;4.25;;;0.90;;
31818;SDS011;18384;48.860;9.188;2022-10-16T11:15:37;2.10;;;0.90;;
31818;SDS011;18384;48.860;9.188;2022-10-16T11:18:15;4.53;;;0.95;;
31818;SDS011;18384;48.860;9.188;2022-10-16T11:21:04;1.98;;;1.00;;
31818;SDS011;18384;48.860;9.188;2022-10-16T11:23:47;14.43;;;0.95;;
31818;SDS011;18384;48.860;9.188;2022-10-16T11:26:26;4.00;;;0.82;;
31818;SDS011;18384;48.860;9.188;2022-10-16T11:28:56;2.60;;;0.90;;
31818;SDS011;18384;48.860;9.188;2022-10-16T11:31:36;4.40;;;1.05;;
31818;SDS011;18384;48.860;9.188;2022-10-16T11:34:17;4.45;;;1.00;;
31818;SDS011;18384;48.860;9.188;2022-10-16T11:37:13;5.65;;;0.98;;
31818;SDS011;18384;48.860;9.188;2022-10-16T11:42:19;1.42;;;0.80;;
31818;SDS011;18384;48.860;9.188;2022-10-16T11:45:46;4.28;;;0.95;;
31818;SDS011;18384;48.860;9.188;2022-10-16T11:48:20;5.35;;;1.20;;
31818;SDS011;18384;48.860;9.188;2022-10-16T11:54:24;2.55;;;0.90;;
31818;SDS011;18384;48.860;9.188;2022-10-16T11:57:26;4.10;;;0.85;;
31818;SDS011;18384;48.860;9.188;2022-10-16T12:02:49;5.00;;;0.90;;
31818;SDS011;18384;48.860;9.188;2022-10-16T12:17:55;9.70;;;1.30;;
31818;SDS011;18384;48.860;9.188;2022-10-16T12:20:24;3.50;;;1.20;;
31818;SDS011;18384;48.860;9.188;2022-10-16T12:23:02;2.55;;;0.95;;
31818;SDS011;18384;48.860;9.188;2022-10-16T12:25:35;3.92;;;1.00;;
31818;SDS011;18384;48.860;9.188;2022-10-16T12:28:21;5.60;;;1.10;;
31818;SDS011;18384;48.860;9.188;2022-10-16T12:30:56;1.77;;;0.70;;
31818;SDS011;18384;48.860;9.188;2022-10-16T12:33:35;3.05;;;1.00;;
31818;SDS011;18384;48.860;9.188;2022-10-16T12:36:16;3.35;;;1.10;;
31818;SDS011;18384;48.860;9.188;2022-10-16T12:38:57;2.62;;;0.90;;
31818;SDS011;18384;48.860;9.188;2022-10-16T12:41:34;1.67;;;0.80;;
31818;SDS011;18384;48.860;9.188;2022-10-16T12:44:05;1.83;;;0.77;;
31818;SDS011;18384;48.860;9.188;2022-10-16T12:46:48;4.20;;;0.80;;
31818;SDS011;18384;48.860;9.188;2022-10-16T12:49:37;2.53;;;1.10;;
31818;SDS011;18384;48.860;9.188;2022-10-16T12:52:24;3.42;;;1.00;;
31818;SDS011;18384;48.860;9.188;2022-10-16T12:55:03;4.55;;;0.77;;
31818;SDS011;18384;48.860;9.188;2022-10-16T12:58:24;2.03;;;0.82;;
31818;SDS011;18384;48.860;9.188;2022-10-16T13:01:19;4.68;;;1.05;;
31818;SDS011;18384;48.860;9.188;2022-10-16T13:06:01;1.95;;;0.90;;
31818;SDS011;18384;48.860;9.188;2022-10-16T13:09:17;2.05;;;0.90;;
31818;SDS011;18384;48.860;9.188;2022-10-16T13:12:13;2.33;;;0.70;;
31818;SDS011;18384;48.860;9.188;2022-10-16T13:15:16;3.58;;;1.02;;
31818;SDS011;18384;48.860;9.188;2022-10-16T13:18:14;8.13;;;1.02;;
31818;SDS011;18384;48.860;9.188;2022-10-16T13:20:53;1.45;;;0.90;;
31818;SDS011;18384;48.860;9.188;2022-10-16T13:24:10;5.20;;;0.90;;
31818;SDS011;18384;48.860;9.188;2022-10-16T13:27:01;2.10;;;1.17;;
31818;SDS011;18384;48.860;9.188;2022-10-16T13:29:38;2.25;;;1.00;;
31818;SDS011;18384;48.860;9.188;2022-10-16T13:32:07;3.75;;;0.90;;
31818;SDS011;18384;48.860;9.188;2022-10-16T13:34:44;6.20;;;0.90;;
31818;SDS011;18384;48.860;9.188;2022-10-16T13:37:17;4.07;;;1.30;;
31818;SDS011;18384;48.860;9.188;2022-10-16T13:39:46;1.50;;;1.00;;
31818;SDS011;18384;48.860;9.188;2022-10-16T13:42:15;1.60;;;0.90;;
31818;SDS011;18384;48.860;9.188;2022-10-16T13:44:51;5.15;;;1.20;;
31818;SDS011;18384;48.860;9.188;2022-10-16T13:47:27;6.37;;;0.98;;
31818;SDS011;18384;48.860;9.188;2022-10-16T13:50:14;3.08;;;1.10;;
31818;SDS011;18384;48.860;9.188;2022-10-16T13:52:44;2.08;;;0.80;;
31818;SDS011;18384;48.860;9.188;2022-10-16T13:55:12;7.40;;;1.20;;
31818;SDS011;18384;48.860;9.188;2022-10-16T13:57:41;4.07;;;1.00;;
31818;SDS011;18384;48.860;9.188;2022-10-16T14:00:21;4.45;;;1.25;;
31818;SDS011;18384;48.860;9.188;2022-10-16T14:03:36;4.95;;;1.20;;
31818;SDS011;18384;48.860;9.188;2022-10-16T14:06:03;6.75;;;1.30;;
31818;SDS011;18384;48.860;9.188;2022-10-16T14:08:40;1.87;;;1.17;;
31818;SDS011;18384;48.860;9.188;2022-10-16T14:11:19;4.72;;;1.48;;
31818;SDS011;18384;48.860;9.188;2022-10-16T14:13:48;7.28;;;1.30;;
31818;SDS011;18384;48.860;9.188;2022-10-16T14:16:18;3.53;;;1.17;;
31818;SDS011;18384;48.860;9.188;2022-10-16T14:18:55;3.37;;;1.20;;
31818;SDS011;18384;48.860;9.188;2022-10-16T14:21:27;3.45;;;1.20;;
31818;SDS011;18384;48.860;9.188;2022-10-16T14:23:54;6.75;;;1.42;;
31818;SDS011;18384;48.860;9.188;2022-10-16T14:26:26;2.50;;;1.35;;
31818;SDS011;18384;48.860;9.188;2022-10-16T14:29:08;6.25;;;1.40;;
31818;SDS011;18384;48.860;9.188;2022-10-16T14:31:40;2.22;;;1.20;;
31818;SDS011;18384;48.860;9.188;2022-10-16T14:34:30;10.68;;;3.47;;
31818;SDS011;18384;48.860;9.188;2022-10-16T14:41:32;4.15;;;1.50;;
31818;SDS011;18384;48.860;9.188;2022-10-16T14:44:11;2.65;;;1.50;;
31818;SDS011;18384;48.860;9.188;2022-10-16T14:46:39;3.45;;;1.45;;
31818;SDS011;18384;48.860;9.188;2022-10-16T14:51:53;2.53;;;1.05;;
31818;SDS011;18384;48.860;9.188;2022-10-16T14:54:20;10.50;;;1.40;;
31818;SDS011;18384;48.860;9.188;2022-10-16T14:56:56;4.03;;;1.55;;
31818;SDS011;18384;48.860;9.188;2022-10-16T15:02:50;3.97;;;1.50;;
31818;SDS011;18384;48.860;9.188;2022-10-16T15:07:47;3.37;;;1.20;;
31818;SDS011;18384;48.860;9.188;2022-10-16T15:10:16;3.00;;;1.40;;
31818;SDS011;18384;48.860;9.188;2022-10-16T15:12:44;4.28;;;1.40;;
31818;SDS011;18384;48.860;9.188;2022-10-16T15:15:28;2.92;;;1.35;;
31818;SDS011;18384;48.860;9.188;2022-10-16T15:18:07;4.72;;;1.33;;
31818;SDS011;18384;48.860;9.188;2022-10-16T15:23:13;6.87;;;1.65;;
31818;SDS011;18384;48.860;9.188;2022-10-16T15:25:49;9.98;;;1.67;;
31818;SDS011;18384;48.860;9.188;2022-10-16T15:28:17;4.50;;;1.33;;
31818;SDS011;18384;48.860;9.188;2022-10-16T15:30:45;6.35;;;1.25;;
31818;SDS011;18384;48.860;9.188;2022-10-16T15:33:14;5.68;;;1.30;;
31818;SDS011;18384;48.860;9.188;2022-10-16T15:35:45;4.18;;;1.30;;
31818;SDS011;18384;48.860;9.188;2022-10-16T15:38:13;10.27;;;5.50;;
31818;SDS011;18384;48.860;9.188;2022-10-16T15:40:41;5.22;;;1.92;;
31818;SDS011;18384;48.860;9.188;2022-10-16T15:43:07;5.43;;;2.30;;
31818;SDS011;18384;48.860;9.188;2022-10-16T15:45:34;8.48;;;3.50;;
31818;SDS011;18384;48.860;9.188;2022-10-16T15:48:00;10.55;;;4.07;;
31818;SDS011;18384;48.860;9.188;2022-10-16T15:52:52;13.07;;;6.10;;
31818;SDS011;18384;48.860;9.188;2022-10-16T15:57:45;19.55;;;10.82;;
31818;SDS011;18384;48.860;9.188;2022-10-16T16:00:12;5.72;;;2.62;;
31818;SDS011;18384;48.860;9.188;2022-10-16T16:02:42;3.90;;;1.67;;
31818;SDS011;18384;48.860;9.188;2022-10-16T16:05:14;7.25;;;2.10;;
31818;SDS011;18384;48.860;9.188;2022-10-16T16:07:40;7.75;;;2.25;;
31818;SDS011;18384;48.860;9.188;2022-10-16T16:10:07;5.03;;;2.65;;
31818;SDS011;18384;48.860;9.188;2022-10-16T16:12:35;6.70;;;1.87;;
31818;SDS011;18384;48.860;9.188;2022-10-16T16:15:03;4.30;;;1.90;;
31818;SDS011;18384;48.860;9.188;2022-10-16T16:17:32;3.37;;;1.62;;
31818;SDS011;18384;48.860;9.188;2022-10-16T16:19:59;6.95;;;1.90;;
31818;SDS011;18384;48.860;9.188;2022-10-16T16:22:26;7.22;;;2.70;;
31818;SDS011;18384;48.860;9.188;2022-10-16T16:24:52;5.07;;;2.75;;
31818;SDS011;18384;48.860;9.188;2022-10-16T16:29:45;7.00;;;1.87;;
31818;SDS011;18384;48.860;9.188;2022-10-16T16:32:12;4.57;;;1.75;;
31818;SDS011;18384;48.860;9.188;2022-10-16T16:34:38;5.45;;;1.85;;
31818;SDS011;18384;48.860;9.188;2022-10-16T16:37:04;5.05;;;1.90;;
31818;SDS011;18384;48.860;9.188;2022-10-16T16:39:30;5.40;;;2.10;;
31818;SDS011;18384;48.860;9.188;2022-10-16T16:41:56;3.70;;;1.65;;
31818;SDS011;18384;48.860;9.188;2022-10-16T16:44:27;3.25;;;1.50;;
31818;SDS011;18384;48.860;9.188;2022-10-16T16:46:53;4.50;;;1.40;;
31818;SDS011;18384;48.860;9.188;2022-10-16T16:49:20;3.08;;;1.73;;
31818;SDS011;18384;48.860;9.188;2022-10-16T16:54:12;5.93;;;1.65;;
31818;SDS011;18384;48.860;9.188;2022-10-16T16:56:39;4.32;;;1.77;;
31818;SDS011;18384;48.860;9.188;2022-10-16T16:59:15;2.87;;;1.62;;
31818;SDS011;18384;48.860;9.188;2022-10-16T17:01:45;3.35;;;1.52;;
31818;SDS011;18384;48.860;9.188;2022-10-16T17:04:11;5.55;;;1.40;;
31818;SDS011;18384;48.860;9.188;2022-10-16T17:06:40;4.37;;;1.50;;
31818;SDS011;18384;48.860;9.188;2022-10-16T17:09:07;3.17;;;1.92;;
31818;SDS011;18384;48.860;9.188;2022-10-16T17:11:34;4.72;;;1.90;;
31818;SDS011;18384;48.860;9.188;2022-10-16T17:14:01;4.40;;;2.12;;
31818;SDS011;18384;48.860;9.188;2022-10-16T17:16:29;3.92;;;2.03;;
31818;SDS011;18384;48.860;9.188;2022-10-16T17:19:03;4.40;;;2.60;;